createdAt,value
2022-12-20T00:01:33.672Z,-5.80
2022-12-20T00:04:05.051Z,-5.82
2022-12-20T00:06:36.600Z,-5.83
2022-12-20T00:09:09.523Z,-5.84
2022-12-20T00:11:40.601Z,-5.87
2022-12-20T00:14:10.748Z,-5.90
2022-12-20T00:16:38.886Z,-5.95
2022-12-20T00:19:09.054Z,-5.94
2022-12-20T00:21:37.660Z,-5.97
2022-12-20T00:24:07.119Z,-5.97
2022-12-20T00:26:36.026Z,-5.96
2022-12-20T00:29:05.584Z,-6.00
2022-12-20T00:31:33.941Z,-6.01
2022-12-20T00:34:02.056Z,-6.04
2022-12-20T00:36:32.159Z,-6.08
2022-12-20T00:39:01.218Z,-6.09
2022-12-20T00:41:32.433Z,-6.09
2022-12-20T00:44:02.153Z,-6.08
2022-12-20T00:46:31.311Z,-6.09
2022-12-20T00:49:00.383Z,-6.09
2022-12-20T00:51:30.677Z,-6.09
2022-12-20T00:53:58.811Z,-6.12
2022-12-20T00:56:26.596Z,-6.17
2022-12-20T00:58:59.649Z,-6.22
2022-12-20T01:01:32.789Z,-6.26
2022-12-20T01:04:01.430Z,-6.28
2022-12-20T01:06:30.623Z,-6.28
2022-12-20T01:08:59.008Z,-6.27
2022-12-20T01:11:31.330Z,-6.27
2022-12-20T01:14:02.794Z,-6.29
2022-12-20T01:16:35.499Z,-6.30
2022-12-20T01:19:04.070Z,-6.28
2022-12-20T01:21:32.144Z,-6.28
2022-12-20T01:23:59.873Z,-6.27
2022-12-20T01:26:29.822Z,-6.27
2022-12-20T01:29:00.383Z,-6.26
2022-12-20T01:31:29.716Z,-6.28
2022-12-20T01:33:58.194Z,-6.30
2022-12-20T01:36:30.753Z,-6.30
2022-12-20T01:39:07.910Z,-6.26
2022-12-20T01:41:37.401Z,-6.25
2022-12-20T01:44:18.774Z,-6.23
2022-12-20T01:46:48.907Z,-6.22
2022-12-20T01:49:33.582Z,-6.23
2022-12-20T01:52:12.098Z,-6.21
2022-12-20T01:54:45.262Z,-6.21
2022-12-20T01:57:27.156Z,-6.21
2022-12-20T01:59:56.884Z,-6.20
2022-12-20T02:02:25.273Z,-6.17
2022-12-20T02:04:53.353Z,-6.13
2022-12-20T02:07:24.982Z,-6.12
2022-12-20T02:09:55.696Z,-6.13
2022-12-20T02:12:26.530Z,-6.11
2022-12-20T02:15:36.543Z,-6.12
2022-12-20T02:18:25.112Z,-6.09
2022-12-20T02:21:16.026Z,-6.08
2022-12-20T02:24:20.758Z,-6.06
2022-12-20T02:27:31.580Z,-6.04
2022-12-20T02:30:13.955Z,-6.01
2022-12-20T02:33:04.607Z,-5.98
2022-12-20T02:35:36.128Z,-5.95
2022-12-20T02:38:25.987Z,-5.96
2022-12-20T02:41:01.867Z,-5.94
2022-12-20T02:43:50.104Z,-5.91
2022-12-20T02:46:20.867Z,-5.91
2022-12-20T02:48:51.101Z,-5.92
2022-12-20T02:51:22.235Z,-5.92
2022-12-20T02:53:52.199Z,-5.90
2022-12-20T02:56:28.457Z,-5.89
2022-12-20T02:59:07.211Z,-5.90
2022-12-20T03:01:43.721Z,-5.90
2022-12-20T03:04:13.192Z,-5.89
2022-12-20T03:07:05.876Z,-5.89
2022-12-20T03:09:37.216Z,-5.90
2022-12-20T03:12:06.158Z,-5.90
2022-12-20T03:14:35.763Z,-5.94
2022-12-20T03:17:07.081Z,-5.97
2022-12-20T03:19:34.868Z,-6.03
2022-12-20T03:22:02.793Z,-6.05
2022-12-20T03:24:32.093Z,-6.07
2022-12-20T03:27:00.417Z,-6.09
2022-12-20T03:29:28.066Z,-6.08
2022-12-20T03:31:55.753Z,-6.11
2022-12-20T03:34:23.824Z,-6.13
2022-12-20T03:36:51.879Z,-6.12
2022-12-20T03:39:20.018Z,-6.11
2022-12-20T03:41:49.691Z,-6.11
2022-12-20T03:44:18.365Z,-6.11
2022-12-20T03:46:46.249Z,-6.15
2022-12-20T03:49:13.988Z,-6.18
2022-12-20T03:51:43.611Z,-6.25
2022-12-20T03:54:11.689Z,-6.29
2022-12-20T03:56:44.217Z,-6.33
2022-12-20T03:59:11.956Z,-6.35
2022-12-20T04:01:40.767Z,-6.38
2022-12-20T04:04:12.328Z,-6.41
2022-12-20T04:06:40.334Z,-6.43
2022-12-20T04:09:08.127Z,-6.44
2022-12-20T04:11:38.953Z,-6.45
2022-12-20T04:14:08.615Z,-6.49
2022-12-20T04:16:36.689Z,-6.47
2022-12-20T04:19:05.449Z,-6.46
2022-12-20T04:21:37.927Z,-6.46
2022-12-20T04:24:07.970Z,-6.46
2022-12-20T04:26:43.733Z,-6.50
2022-12-20T04:29:11.822Z,-6.50
2022-12-20T04:31:40.420Z,-6.49
2022-12-20T04:34:08.246Z,-6.50
2022-12-20T04:36:36.519Z,-6.50
2022-12-20T04:39:06.207Z,-6.47
2022-12-20T04:41:35.743Z,-6.45
2022-12-20T04:44:05.213Z,-6.42
2022-12-20T04:46:35.114Z,-6.41
2022-12-20T04:49:03.153Z,-6.39
2022-12-20T04:51:32.371Z,-6.37
2022-12-20T04:54:00.191Z,-6.36
2022-12-20T04:56:32.646Z,-6.31
2022-12-20T04:59:02.891Z,-6.32
2022-12-20T05:01:31.256Z,-6.29
2022-12-20T05:03:59.000Z,-6.26
2022-12-20T05:06:28.651Z,-6.24
2022-12-20T05:08:56.719Z,-6.20
2022-12-20T05:11:25.192Z,-6.15
2022-12-20T05:13:53.218Z,-6.13
2022-12-20T05:16:21.022Z,-6.11
2022-12-20T05:18:49.890Z,-6.08
2022-12-20T05:21:36.230Z,-6.06
2022-12-20T05:24:23.789Z,-6.01
2022-12-20T05:27:02.204Z,-5.97
2022-12-20T05:29:30.312Z,-5.95
2022-12-20T05:31:58.326Z,-5.94
2022-12-20T05:34:26.352Z,-5.95
2022-12-20T05:36:54.726Z,-5.94
2022-12-20T05:39:23.836Z,-5.95
2022-12-20T05:41:53.606Z,-5.95
2022-12-20T05:44:22.735Z,-5.95
2022-12-20T05:46:52.469Z,-5.93
2022-12-20T05:49:22.055Z,-5.90
2022-12-20T05:51:50.093Z,-5.87
2022-12-20T05:54:19.905Z,-5.83
2022-12-20T05:57:05.556Z,-5.78
2022-12-20T05:59:37.961Z,-5.75
2022-12-20T06:02:07.078Z,-5.74
2022-12-20T06:04:36.017Z,-5.69
2022-12-20T06:07:05.882Z,-5.68
2022-12-20T06:09:33.941Z,-5.68
2022-12-20T06:12:04.439Z,-5.69
2022-12-20T06:14:33.561Z,-5.65
2022-12-20T06:17:02.588Z,-5.59
2022-12-20T06:19:31.664Z,-5.48
2022-12-20T06:22:00.634Z,-5.37
2022-12-20T06:24:30.319Z,-5.27
2022-12-20T06:26:58.162Z,-5.13
2022-12-20T06:29:31.918Z,-4.90
2022-12-20T06:32:05.013Z,-4.60
2022-12-20T06:34:33.839Z,-4.10
2022-12-20T06:37:05.685Z,-3.55
2022-12-20T06:39:40.157Z,-3.13
2022-12-20T06:42:18.827Z,-2.59
2022-12-20T06:44:47.907Z,-2.08
2022-12-20T06:47:16.382Z,-1.67
2022-12-20T06:49:44.289Z,-1.34
2022-12-20T06:52:13.948Z,-1.05
2022-12-20T06:54:46.292Z,-0.85
2022-12-20T06:57:14.478Z,-0.93
2022-12-20T06:59:43.483Z,-1.12
2022-12-20T07:02:13.901Z,-1.20
2022-12-20T07:04:41.986Z,-1.21
2022-12-20T07:07:12.062Z,-1.22
2022-12-20T07:09:40.989Z,-1.25
2022-12-20T07:12:10.195Z,-1.22
2022-12-20T07:14:37.881Z,-1.10
2022-12-20T07:17:07.119Z,-0.97
2022-12-20T07:19:37.681Z,-0.85
2022-12-20T07:22:06.089Z,-0.72
2022-12-20T07:24:34.299Z,-0.77
2022-12-20T07:27:04.278Z,-0.72
2022-12-20T07:29:32.358Z,-0.59
2022-12-20T07:32:00.452Z,-0.45
2022-12-20T07:34:28.120Z,-0.39
2022-12-20T07:36:57.840Z,-0.37
2022-12-20T07:39:25.928Z,-0.40
2022-12-20T07:41:54.984Z,-0.38
2022-12-20T07:44:23.818Z,-0.35
2022-12-20T07:46:51.570Z,-0.38
2022-12-20T07:49:19.395Z,-0.40
2022-12-20T07:51:51.438Z,-0.38
2022-12-20T07:54:27.727Z,-0.33
2022-12-20T07:57:00.945Z,-0.25
2022-12-20T07:59:36.334Z,-0.26
2022-12-20T08:02:05.146Z,-0.27
2022-12-20T08:04:34.022Z,-0.25
2022-12-20T08:07:03.090Z,-0.25
2022-12-20T08:09:35.097Z,-0.22
2022-12-20T08:12:03.235Z,-0.21
2022-12-20T08:14:31.885Z,-0.25
2022-12-20T08:16:59.966Z,-0.21
2022-12-20T08:19:32.254Z,-0.21
2022-12-20T08:21:57.241Z,-0.21
2022-12-20T08:24:25.586Z,-0.19
2022-12-20T08:26:53.229Z,-0.15
2022-12-20T08:29:21.148Z,-0.13
2022-12-20T08:31:50.621Z,-0.14
2022-12-20T08:34:18.709Z,-0.11
2022-12-20T08:36:46.590Z,-0.11
2022-12-20T08:39:14.192Z,-0.06
2022-12-20T08:41:41.889Z,-0.04
2022-12-20T08:44:10.347Z,-0.02
2022-12-20T08:46:38.518Z,0.02
2022-12-20T08:49:06.579Z,0.05
2022-12-20T08:51:34.238Z,0.10
2022-12-20T08:54:03.825Z,0.11
2022-12-20T08:56:31.610Z,0.15
2022-12-20T08:58:59.277Z,0.23
2022-12-20T09:01:28.887Z,0.32
2022-12-20T09:03:56.695Z,0.40
2022-12-20T09:06:24.822Z,0.50
2022-12-20T09:08:52.554Z,0.58
2022-12-20T09:11:25.774Z,0.65
2022-12-20T09:13:56.085Z,0.68
2022-12-20T09:16:27.792Z,0.75
2022-12-20T09:19:05.423Z,0.83
2022-12-20T09:21:30.904Z,0.88
2022-12-20T09:23:58.708Z,0.87
2022-12-20T09:26:27.038Z,0.88
2022-12-20T09:28:55.047Z,0.93
2022-12-20T09:31:26.392Z,0.94
2022-12-20T09:33:57.300Z,0.95
2022-12-20T09:36:27.620Z,1.00
2022-12-20T09:38:55.585Z,1.08
2022-12-20T09:41:40.231Z,1.16
2022-12-20T09:44:13.430Z,1.18
2022-12-20T09:46:42.669Z,1.19
2022-12-20T09:49:17.768Z,1.22
2022-12-20T09:52:19.733Z,1.28
2022-12-20T09:55:23.325Z,1.39
2022-12-20T09:58:22.882Z,1.54
2022-12-20T10:00:54.215Z,1.61
2022-12-20T10:03:32.903Z,1.72
2022-12-20T10:06:34.743Z,1.86
2022-12-20T10:09:05.852Z,1.97
2022-12-20T10:11:50.924Z,2.02
2022-12-20T10:14:55.841Z,2.07
2022-12-20T10:17:46.883Z,2.12
2022-12-20T10:20:35.063Z,2.24
2022-12-20T10:23:44.389Z,2.29
2022-12-20T10:26:13.525Z,2.22
2022-12-20T10:28:41.285Z,2.19
2022-12-20T10:31:13.563Z,2.19
2022-12-20T10:33:42.504Z,2.19
2022-12-20T10:36:30.025Z,2.15
2022-12-20T10:39:00.946Z,2.12
2022-12-20T10:41:42.603Z,2.07
2022-12-20T10:44:26.168Z,2.02
2022-12-20T10:46:59.712Z,2.00
2022-12-20T10:49:36.451Z,2.00
2022-12-20T10:52:14.176Z,1.98
2022-12-20T10:54:46.178Z,1.91
2022-12-20T10:57:34.857Z,1.83
2022-12-20T11:00:08.362Z,1.81
2022-12-20T11:02:42.472Z,1.74
2022-12-20T11:05:17.222Z,1.74
2022-12-20T11:10:32.841Z,1.82
2022-12-20T11:13:03.057Z,1.93
2022-12-20T11:15:35.071Z,2.00
2022-12-20T11:18:17.022Z,2.03
2022-12-20T11:21:00.406Z,2.05
2022-12-20T11:23:57.852Z,2.08
2022-12-20T11:26:42.899Z,2.13
2022-12-20T11:29:31.181Z,2.19
2022-12-20T11:32:44.578Z,2.26
2022-12-20T11:35:35.044Z,2.31
2022-12-20T11:38:20.034Z,2.37
2022-12-20T11:40:55.579Z,2.44
2022-12-20T11:44:15.860Z,2.50
2022-12-20T11:46:34.267Z,2.51
2022-12-20T11:50:00.545Z,2.52
2022-12-20T11:52:48.383Z,2.53
2022-12-20T11:55:24.640Z,2.53
2022-12-20T11:58:21.696Z,2.58
2022-12-20T12:00:37.226Z,2.60
2022-12-20T12:03:16.639Z,2.67
2022-12-20T12:05:48.914Z,2.73
2022-12-20T12:08:34.634Z,2.82
2022-12-20T12:11:39.921Z,2.91
2022-12-20T12:13:44.617Z,2.95
2022-12-20T12:16:20.382Z,2.99
2022-12-20T12:18:48.679Z,3.00
2022-12-20T12:21:35.815Z,3.01
2022-12-20T12:24:38.208Z,3.00
2022-12-20T12:27:15.766Z,3.02
2022-12-20T12:29:39.784Z,3.00
2022-12-20T12:32:25.321Z,3.00
2022-12-20T12:35:23.504Z,2.97
2022-12-20T12:38:27.098Z,2.92
2022-12-20T12:41:35.175Z,2.89
2022-12-20T12:44:34.160Z,2.86
2022-12-20T12:47:06.674Z,2.82
2022-12-20T12:49:34.860Z,2.80
2022-12-20T12:52:04.951Z,2.76
2022-12-20T12:54:39.700Z,2.74
2022-12-20T12:57:14.516Z,2.67
2022-12-20T12:59:47.516Z,2.57
2022-12-20T13:02:20.866Z,2.52
2022-12-20T13:05:10.703Z,2.47
2022-12-20T13:07:44.146Z,2.42
2022-12-20T13:10:22.199Z,2.38
2022-12-20T13:12:58.311Z,2.31
2022-12-20T13:15:33.170Z,2.25
2022-12-20T13:18:10.926Z,2.22
2022-12-20T13:20:38.942Z,2.20
2022-12-20T13:23:18.869Z,2.20
2022-12-20T13:25:52.789Z,2.18
2022-12-20T13:28:29.367Z,2.12
2022-12-20T13:31:09.569Z,2.05
2022-12-20T13:33:48.581Z,1.99
2022-12-20T13:36:30.733Z,1.95
2022-12-20T13:39:23.382Z,1.91
2022-12-20T13:42:17.671Z,1.86
2022-12-20T13:44:47.200Z,1.83
2022-12-20T13:47:31.067Z,1.79
2022-12-20T13:50:20.685Z,1.74
2022-12-20T13:52:48.830Z,1.73
2022-12-20T13:55:24.242Z,1.73
2022-12-20T13:57:53.675Z,1.71
2022-12-20T14:00:26.629Z,1.69
2022-12-20T14:02:55.951Z,1.70
2022-12-20T14:05:26.398Z,1.66
2022-12-20T14:08:04.767Z,1.66
2022-12-20T14:10:35.010Z,1.65
2022-12-20T14:13:25.130Z,1.63
2022-12-20T14:15:54.041Z,1.59
2022-12-20T14:18:25.335Z,1.51
2022-12-20T14:21:04.537Z,1.44
2022-12-20T14:23:48.914Z,1.38
2022-12-20T14:26:25.258Z,1.32
2022-12-20T14:28:56.605Z,1.24
2022-12-20T14:31:40.605Z,1.16
2022-12-20T14:34:29.075Z,1.07
2022-12-20T14:36:56.497Z,0.99
2022-12-20T14:39:33.683Z,0.91
2022-12-20T14:42:13.310Z,0.80
2022-12-20T14:44:41.181Z,0.75
2022-12-20T14:47:25.474Z,0.68
2022-12-20T14:50:00.863Z,0.58
2022-12-20T14:52:39.146Z,0.51
2022-12-20T14:55:27.389Z,0.45
2022-12-20T14:57:56.973Z,0.38
2022-12-20T15:00:31.278Z,0.33
2022-12-20T15:03:13.455Z,0.28
2022-12-20T15:05:51.055Z,0.21
2022-12-20T15:08:31.574Z,0.13
2022-12-20T15:11:11.087Z,0.06
2022-12-20T15:13:43.169Z,-0.01
2022-12-20T15:16:30.780Z,-0.05
2022-12-20T15:19:01.463Z,-0.08
2022-12-20T15:21:40.432Z,-0.12
2022-12-20T15:24:22.858Z,-0.14
2022-12-20T15:26:50.447Z,-0.19
2022-12-20T15:29:24.673Z,-0.26
2022-12-20T15:32:06.996Z,-0.30
2022-12-20T15:34:37.846Z,-0.33
2022-12-20T15:37:06.329Z,-0.37
2022-12-20T15:39:34.403Z,-0.40
2022-12-20T15:42:04.532Z,-0.45
2022-12-20T15:44:35.465Z,-0.47
2022-12-20T15:47:03.851Z,-0.51
2022-12-20T15:49:32.738Z,-0.54
2022-12-20T15:52:00.358Z,-0.55
2022-12-20T15:54:32.322Z,-0.60
2022-12-20T15:57:06.355Z,-0.66
2022-12-20T15:59:59.647Z,-0.69
2022-12-20T16:02:04.254Z,-0.74
2022-12-20T16:04:32.245Z,-0.77
2022-12-20T16:07:00.176Z,-0.78
2022-12-20T16:09:27.944Z,-0.79
2022-12-20T16:11:56.667Z,-0.83
2022-12-20T16:14:26.481Z,-0.87
2022-12-20T16:16:54.096Z,-0.87
2022-12-20T16:19:21.783Z,-0.91
2022-12-20T16:21:51.954Z,-0.94
2022-12-20T16:24:20.989Z,-0.94
2022-12-20T16:26:49.571Z,-0.97
2022-12-20T16:29:17.331Z,-0.99
2022-12-20T16:31:45.166Z,-1.00
2022-12-20T16:34:16.440Z,-1.04
2022-12-20T16:36:44.947Z,-1.06
2022-12-20T16:39:12.461Z,-1.09
2022-12-20T16:41:44.276Z,-1.11
2022-12-20T16:44:16.716Z,-1.11
2022-12-20T16:46:45.023Z,-1.12
2022-12-20T16:49:20.080Z,-1.15
2022-12-20T16:51:45.869Z,-1.18
2022-12-20T16:54:22.035Z,-1.21
2022-12-20T16:56:53.835Z,-1.21
2022-12-20T16:59:28.149Z,-1.21
2022-12-20T17:01:57.337Z,-1.23
2022-12-20T17:04:26.187Z,-1.27
2022-12-20T17:06:55.633Z,-1.30
2022-12-20T17:09:23.618Z,-1.31
2022-12-20T17:11:51.356Z,-1.35
2022-12-20T17:14:21.130Z,-1.36
2022-12-20T17:16:49.448Z,-1.40
2022-12-20T17:19:17.694Z,-1.43
2022-12-20T17:24:34.825Z,-1.49
2022-12-20T17:27:02.830Z,-1.53
2022-12-20T17:29:30.626Z,-1.54
2022-12-20T17:31:58.676Z,-1.54
2022-12-20T17:34:30.206Z,-1.58
2022-12-20T17:36:58.622Z,-1.61
2022-12-20T17:39:26.690Z,-1.64
2022-12-20T17:41:55.090Z,-1.65
2022-12-20T17:44:28.634Z,-1.65
2022-12-20T17:46:58.681Z,-1.66
2022-12-20T17:49:26.707Z,-1.68
2022-12-20T17:51:56.003Z,-1.72
2022-12-20T17:54:26.220Z,-1.73
2022-12-20T17:56:54.487Z,-1.75
2022-12-20T17:59:28.027Z,-1.82
2022-12-20T18:01:55.924Z,-1.86
2022-12-20T18:04:23.765Z,-1.87
2022-12-20T18:06:51.757Z,-1.91
2022-12-20T18:09:21.343Z,-1.95
2022-12-20T18:11:49.311Z,-1.99
2022-12-20T18:14:17.667Z,-2.01
2022-12-20T18:16:45.559Z,-2.03
2022-12-20T18:19:17.445Z,-2.05
2022-12-20T18:21:45.195Z,-2.08
2022-12-20T18:24:15.435Z,-2.09
2022-12-20T18:26:44.369Z,-2.11
2022-12-20T18:29:12.358Z,-2.14
2022-12-20T18:31:40.079Z,-2.14
2022-12-20T18:34:08.059Z,-2.16
2022-12-20T18:36:37.683Z,-2.19
2022-12-20T18:39:11.601Z,-2.20
2022-12-20T18:41:41.571Z,-2.21
2022-12-20T18:44:13.145Z,-2.27
2022-12-20T18:46:46.651Z,-2.33
2022-12-20T18:49:14.421Z,-2.39
2022-12-20T18:51:44.526Z,-2.41
2022-12-20T18:54:14.277Z,-2.41
2022-12-20T18:56:42.000Z,-2.40
2022-12-20T18:59:12.456Z,-2.38
2022-12-20T19:01:42.198Z,-2.37
2022-12-20T19:04:10.869Z,-2.40
2022-12-20T19:06:39.246Z,-2.42
2022-12-20T19:09:12.639Z,-2.44
2022-12-20T19:11:41.410Z,-2.46
2022-12-20T19:14:11.934Z,-2.47
2022-12-20T19:16:43.327Z,-2.47
2022-12-20T19:19:11.535Z,-2.48
2022-12-20T19:21:41.779Z,-2.46
2022-12-20T19:24:10.995Z,-2.44
2022-12-20T19:26:39.289Z,-2.46
2022-12-20T19:29:08.170Z,-2.44
2022-12-20T19:31:37.719Z,-2.42
2022-12-20T19:34:12.390Z,-2.44
2022-12-20T19:36:43.575Z,-2.46
2022-12-20T19:39:21.843Z,-2.47
2022-12-20T19:42:21.651Z,-2.48
2022-12-20T19:44:20.580Z,-2.49
2022-12-20T19:46:49.265Z,-2.53
2022-12-20T19:49:17.394Z,-2.56
2022-12-20T19:51:47.910Z,-2.57
2022-12-20T19:54:15.688Z,-2.56
2022-12-20T19:56:43.918Z,-2.56
2022-12-20T19:59:13.430Z,-2.58
2022-12-20T20:01:41.074Z,-2.59
2022-12-20T20:04:09.531Z,-2.61
2022-12-20T20:06:37.368Z,-2.64
2022-12-20T20:09:07.184Z,-2.65
2022-12-20T20:11:34.944Z,-2.68
2022-12-20T20:14:03.493Z,-2.71
2022-12-20T20:16:31.968Z,-2.74
2022-12-20T20:18:59.802Z,-2.75
2022-12-20T20:21:29.125Z,-2.76
2022-12-20T20:23:58.921Z,-2.80
2022-12-20T20:26:29.139Z,-2.89
2022-12-20T20:28:56.804Z,-2.93
2022-12-20T20:31:25.043Z,-2.96
2022-12-20T20:33:53.221Z,-2.97
2022-12-20T20:36:23.619Z,-3.00
2022-12-20T20:38:51.866Z,-3.04
2022-12-20T20:41:20.094Z,-3.07
2022-12-20T20:43:48.421Z,-3.09
2022-12-20T20:46:17.281Z,-3.08
2022-12-20T20:48:45.175Z,-3.04
2022-12-20T20:51:13.921Z,-3.01
2022-12-20T20:53:42.576Z,-2.99
2022-12-20T20:56:11.235Z,-3.03
2022-12-20T20:58:39.514Z,-3.07
2022-12-20T21:01:08.952Z,-3.07
2022-12-20T21:03:37.367Z,-3.04
2022-12-20T21:06:37.288Z,-3.04
2022-12-20T21:08:38.663Z,-3.05
2022-12-20T21:11:08.254Z,-3.04
2022-12-20T21:13:38.284Z,-3.05
2022-12-20T21:16:17.785Z,-3.05
2022-12-20T21:18:52.785Z,-3.03
2022-12-20T21:21:21.198Z,-3.02
2022-12-20T21:23:49.337Z,-3.00
2022-12-20T21:26:20.491Z,-2.99
2022-12-20T21:28:49.345Z,-2.98
2022-12-20T21:31:19.076Z,-3.00
2022-12-20T21:33:47.886Z,-2.98
2022-12-20T21:36:18.847Z,-2.97
2022-12-20T21:38:52.586Z,-2.95
2022-12-20T21:41:27.344Z,-2.96
2022-12-20T21:43:58.448Z,-2.93
2022-12-20T21:46:29.475Z,-2.92
2022-12-20T21:48:58.582Z,-2.90
2022-12-20T21:51:28.073Z,-2.89
2022-12-20T21:53:59.143Z,-2.87
2022-12-20T21:56:31.661Z,-2.90
2022-12-20T21:59:01.842Z,-2.90
2022-12-20T22:01:30.929Z,-2.89
2022-12-20T22:04:05.546Z,-2.89
2022-12-20T22:06:34.933Z,-2.86
2022-12-20T22:09:06.862Z,-2.86
2022-12-20T22:11:36.852Z,-2.89
2022-12-20T22:14:05.876Z,-2.89
2022-12-20T22:16:34.450Z,-2.89
2022-12-20T22:19:03.331Z,-2.86
2022-12-20T22:21:33.569Z,-2.82
2022-12-20T22:24:01.241Z,-2.80
2022-12-20T22:26:32.379Z,-2.78
2022-12-20T22:29:06.613Z,-2.78
2022-12-20T22:31:37.672Z,-2.78
2022-12-20T22:34:06.333Z,-2.79
2022-12-20T22:36:35.267Z,-2.81
2022-12-20T22:39:03.303Z,-2.81
2022-12-20T22:41:34.252Z,-2.84
2022-12-20T22:44:04.451Z,-2.83
2022-12-20T22:46:33.171Z,-2.82
2022-12-20T22:49:01.144Z,-2.84
2022-12-20T22:51:30.311Z,-2.87
2022-12-20T22:53:59.055Z,-2.87
2022-12-20T22:56:27.406Z,-2.88
2022-12-20T22:58:55.460Z,-2.90
2022-12-20T23:01:23.504Z,-2.95
2022-12-20T23:03:51.525Z,-2.99
2022-12-20T23:06:20.915Z,-3.04
2022-12-20T23:08:49.114Z,-3.08
2022-12-20T23:11:42.504Z,-3.10
2022-12-20T23:14:36.043Z,-3.13
2022-12-20T23:17:05.566Z,-3.12
2022-12-20T23:19:52.299Z,-3.13
2022-12-20T23:22:40.458Z,-3.15
2022-12-20T23:25:15.577Z,-3.18
2022-12-20T23:27:46.035Z,-3.23
2022-12-20T23:30:17.812Z,-3.27
2022-12-20T23:32:45.688Z,-3.29
2022-12-20T23:35:16.709Z,-3.30
2022-12-20T23:37:45.293Z,-3.31
2022-12-20T23:40:15.765Z,-3.33
2022-12-20T23:42:44.168Z,-3.37
2022-12-20T23:45:12.568Z,-3.38
2022-12-20T23:47:40.243Z,-3.41
2022-12-20T23:50:08.948Z,-3.43
2022-12-20T23:52:36.622Z,-3.43
2022-12-20T23:55:05.336Z,-3.44
2022-12-20T23:57:33.013Z,-3.45
